createdAt,value
2018-02-21T00:00:20.204Z,5.71
2018-02-21T00:02:48.695Z,5.23
2018-02-21T00:07:51.770Z,5.16
2018-02-21T00:10:20.157Z,5.15
2018-02-21T00:12:48.560Z,4.64
2018-02-21T00:15:16.947Z,4.94
2018-02-21T00:17:45.327Z,4.78
2018-02-21T00:20:13.721Z,5.43
2018-02-21T00:22:42.125Z,5.14
2018-02-21T00:25:10.507Z,4.29
2018-02-21T00:27:38.870Z,4.89
2018-02-21T00:30:07.351Z,5.23
2018-02-21T00:32:35.732Z,4.91
2018-02-21T00:35:04.193Z,5.21
2018-02-21T00:37:32.560Z,5.67
2018-02-21T00:40:00.983Z,6.21
2018-02-21T00:42:29.417Z,5.24
2018-02-21T00:44:57.796Z,5.28
2018-02-21T00:47:26.275Z,4.79
2018-02-21T00:49:54.658Z,4.61
2018-02-21T00:52:23.047Z,4.75
2018-02-21T00:54:51.426Z,5.53
2018-02-21T00:57:19.839Z,5.26
2018-02-21T00:59:48.215Z,5.29
2018-02-21T01:02:16.695Z,5.71
2018-02-21T01:04:45.136Z,4.28
2018-02-21T01:07:13.510Z,5.87
2018-02-21T01:09:41.889Z,6.02
2018-02-21T01:12:10.259Z,6.34
2018-02-21T01:14:38.786Z,6.12
2018-02-21T01:17:07.159Z,6.27
2018-02-21T01:19:35.557Z,6.25
2018-02-21T01:22:03.978Z,6.35
2018-02-21T01:24:32.350Z,6.46
2018-02-21T01:27:00.794Z,6.11
2018-02-21T01:29:29.181Z,5.69
2018-02-21T01:31:57.581Z,5.75
2018-02-21T01:34:25.950Z,5.90
2018-02-21T01:36:54.342Z,6.17
2018-02-21T01:39:22.802Z,5.85
2018-02-21T01:41:51.174Z,6.07
2018-02-21T01:44:19.579Z,6.04
2018-02-21T01:46:47.950Z,5.01
2018-02-21T01:49:16.331Z,5.90
2018-02-21T01:51:44.712Z,6.07
2018-02-21T01:54:13.081Z,5.85
2018-02-21T01:56:41.514Z,5.96
2018-02-21T01:59:09.880Z,5.97
2018-02-21T02:01:38.268Z,6.25
2018-02-21T02:04:06.656Z,6.20
2018-02-21T02:06:35.147Z,4.92
2018-02-21T02:09:03.582Z,4.68
2018-02-21T02:11:31.964Z,5.36
2018-02-21T02:14:00.336Z,5.78
2018-02-21T02:16:28.709Z,5.32
2018-02-21T02:18:57.082Z,5.36
2018-02-21T02:21:25.494Z,5.12
2018-02-21T02:23:53.865Z,5.00
2018-02-21T02:26:22.242Z,4.48
2018-02-21T02:28:50.655Z,5.34
2018-02-21T02:31:19.052Z,4.37
2018-02-21T02:33:47.668Z,5.49
2018-02-21T02:36:16.103Z,5.95
2018-02-21T02:38:56.064Z,6.12
2018-02-21T02:41:24.498Z,5.95
2018-02-21T02:43:52.878Z,4.70
2018-02-21T02:46:21.244Z,4.80
2018-02-21T02:48:49.611Z,4.85
2018-02-21T02:51:18.000Z,4.43
2018-02-21T02:53:46.381Z,4.54
2018-02-21T02:56:14.883Z,3.75
2018-02-21T02:58:43.260Z,4.29
2018-02-21T03:01:11.654Z,5.08
2018-02-21T03:03:40.104Z,5.15
2018-02-21T03:06:08.481Z,5.35
2018-02-21T03:08:36.859Z,3.42
2018-02-21T03:11:05.226Z,4.50
2018-02-21T03:13:33.631Z,3.24
2018-02-21T03:16:02.584Z,3.74
2018-02-21T03:18:30.983Z,4.08
2018-02-21T03:20:59.367Z,4.25
2018-02-21T03:23:27.739Z,5.20
2018-02-21T03:25:56.120Z,5.09
2018-02-21T03:28:24.507Z,5.25
2018-02-21T03:30:52.877Z,3.66
2018-02-21T03:33:21.252Z,3.98
2018-02-21T03:35:49.748Z,4.94
2018-02-21T03:38:18.132Z,4.79
2018-02-21T03:40:46.505Z,5.17
2018-02-21T03:43:14.878Z,5.03
2018-02-21T03:45:43.303Z,5.29
2018-02-21T03:48:11.683Z,4.91
2018-02-21T03:50:40.065Z,5.05
2018-02-21T03:53:08.458Z,4.71
2018-02-21T03:55:36.912Z,4.87
2018-02-21T03:58:05.296Z,4.08
2018-02-21T04:00:33.774Z,4.52
2018-02-21T04:03:02.174Z,4.23
2018-02-21T04:05:30.654Z,4.03
2018-02-21T04:07:59.078Z,4.57
2018-02-21T04:10:27.489Z,5.01
2018-02-21T04:12:56.048Z,4.88
2018-02-21T04:15:24.465Z,4.50
2018-02-21T04:17:52.875Z,4.40
2018-02-21T04:20:21.324Z,4.47
2018-02-21T04:22:49.720Z,4.45
2018-02-21T04:25:18.201Z,4.93
2018-02-21T04:27:46.625Z,4.89
2018-02-21T04:30:15.030Z,4.88
2018-02-21T04:32:43.592Z,4.82
2018-02-21T04:35:12.013Z,4.86
2018-02-21T04:37:40.482Z,4.61
2018-02-21T04:40:08.859Z,4.84
2018-02-21T04:42:37.289Z,4.84
2018-02-21T04:45:06.101Z,4.55
2018-02-21T04:47:34.488Z,4.01
2018-02-21T04:50:02.882Z,4.21
2018-02-21T04:52:31.427Z,4.02
2018-02-21T05:00:50.037Z,4.46
2018-02-21T05:03:18.528Z,4.49
2018-02-21T05:05:46.926Z,4.46
2018-02-21T05:08:15.378Z,4.19
2018-02-21T05:10:43.758Z,4.34
2018-02-21T05:13:12.158Z,4.29
2018-02-21T05:15:40.542Z,4.13
2018-02-21T05:18:08.921Z,3.97
2018-02-21T05:20:37.299Z,4.28
2018-02-21T05:23:06.087Z,3.99
2018-02-21T05:25:34.514Z,4.18
2018-02-21T05:28:02.888Z,3.94
2018-02-21T05:30:31.382Z,3.83
2018-02-21T05:32:59.799Z,3.51
2018-02-21T05:35:28.221Z,3.28
2018-02-21T05:37:56.674Z,2.88
2018-02-21T05:40:25.106Z,2.78
2018-02-21T05:42:53.506Z,2.87
2018-02-21T05:45:22.095Z,3.09
2018-02-21T05:47:50.514Z,3.06
2018-02-21T05:50:19.047Z,3.34
2018-02-21T05:52:47.586Z,2.77
2018-02-21T05:55:16.016Z,3.28
2018-02-21T05:57:44.435Z,3.37
2018-02-21T06:00:12.913Z,3.49
2018-02-21T06:02:41.406Z,3.51
2018-02-21T06:05:09.903Z,3.11
2018-02-21T06:07:38.242Z,2.78
2018-02-21T06:10:06.643Z,2.76
2018-02-21T06:12:35.117Z,2.93
2018-02-21T06:15:03.520Z,3.08
2018-02-21T06:17:32.132Z,3.21
2018-02-21T06:20:00.545Z,2.92
2018-02-21T06:22:28.957Z,2.77
2018-02-21T06:24:57.508Z,3.22
2018-02-21T06:27:25.876Z,3.01
2018-02-21T06:29:54.316Z,2.75
2018-02-21T06:32:22.725Z,2.82
2018-02-21T06:34:51.136Z,2.82
2018-02-21T06:37:19.597Z,3.11
2018-02-21T06:39:48.001Z,2.83
2018-02-21T06:42:16.401Z,2.57
2018-02-21T06:44:44.921Z,2.47
2018-02-21T06:47:13.351Z,2.97
2018-02-21T06:49:42.141Z,2.84
2018-02-21T06:52:10.722Z,2.31
2018-02-21T06:54:39.196Z,2.54
2018-02-21T06:57:07.616Z,2.89
2018-02-21T06:59:36.042Z,2.68
2018-02-21T07:02:04.520Z,2.57
2018-02-21T07:04:32.925Z,3.36
2018-02-21T07:07:01.312Z,3.08
2018-02-21T07:09:29.728Z,3.06
2018-02-21T07:11:58.119Z,2.76
2018-02-21T07:14:26.930Z,2.96
2018-02-21T07:16:55.360Z,3.42
2018-02-21T07:19:23.913Z,3.06
2018-02-21T07:21:52.346Z,3.47
2018-02-21T07:24:20.755Z,3.60
2018-02-21T07:26:49.291Z,3.53
2018-02-21T07:29:17.703Z,3.01
2018-02-21T07:31:46.148Z,4.15
2018-02-21T07:34:14.643Z,3.63
2018-02-21T07:36:43.116Z,2.99
2018-02-21T07:39:11.582Z,2.93
2018-02-21T07:41:39.996Z,3.20
2018-02-21T07:44:08.415Z,3.65
2018-02-21T07:46:36.812Z,3.69
2018-02-21T07:49:05.263Z,3.99
2018-02-21T07:51:33.993Z,4.17
2018-02-21T07:54:02.524Z,4.31
2018-02-21T07:56:30.947Z,4.08
2018-02-21T07:58:59.867Z,4.17
2018-02-21T08:01:28.271Z,3.90
2018-02-21T08:03:56.967Z,4.24
2018-02-21T08:06:25.518Z,3.97
2018-02-21T08:08:53.950Z,4.16
2018-02-21T08:11:22.431Z,4.57
2018-02-21T08:13:50.825Z,4.57
2018-02-21T08:16:19.352Z,5.03
2018-02-21T08:18:47.769Z,5.22
2018-02-21T08:21:16.169Z,4.75
2018-02-21T08:23:44.663Z,4.03
2018-02-21T08:26:13.295Z,5.03
2018-02-21T08:28:41.707Z,4.52
2018-02-21T08:31:10.106Z,4.95
2018-02-21T08:33:38.518Z,5.13
2018-02-21T08:36:06.929Z,5.92
2018-02-21T08:38:35.427Z,6.08
2018-02-21T08:41:03.836Z,5.84
2018-02-21T08:43:32.243Z,6.47
2018-02-21T08:46:00.694Z,6.34
2018-02-21T08:48:29.109Z,5.41
2018-02-21T08:50:57.689Z,6.38
2018-02-21T08:53:26.088Z,6.25
2018-02-21T08:55:54.486Z,6.40
2018-02-21T08:58:22.893Z,6.76
2018-02-21T09:00:51.299Z,9.09
2018-02-21T09:03:19.776Z,10.51
2018-02-21T09:05:48.193Z,10.65
2018-02-21T09:08:16.602Z,10.41
2018-02-21T09:10:45.028Z,11.85
2018-02-21T09:13:13.453Z,11.47
2018-02-21T09:18:16.375Z,12.13
2018-02-21T09:20:45.069Z,11.16
2018-02-21T09:23:13.488Z,11.04
2018-02-21T09:25:41.907Z,11.90
2018-02-21T09:28:10.838Z,11.92
2018-02-21T09:30:39.252Z,10.27
2018-02-21T09:33:07.757Z,11.79
2018-02-21T09:35:36.184Z,12.14
2018-02-21T09:38:04.621Z,11.08
2018-02-21T09:40:33.046Z,11.74
2018-02-21T09:43:01.473Z,11.78
2018-02-21T09:45:30.026Z,12.81
2018-02-21T09:47:58.439Z,12.73
2018-02-21T09:50:26.856Z,11.46
2018-02-21T09:52:55.254Z,11.52
2018-02-21T09:55:23.684Z,12.16
2018-02-21T09:57:52.147Z,12.12
2018-02-21T10:00:20.561Z,10.96
2018-02-21T10:02:48.950Z,12.05
2018-02-21T10:05:17.367Z,11.85
2018-02-21T10:07:45.766Z,13.04
2018-02-21T10:10:14.430Z,13.80
2018-02-21T10:12:42.835Z,14.84
2018-02-21T10:15:11.369Z,13.47
2018-02-21T10:17:39.843Z,13.28
2018-02-21T10:20:08.265Z,14.18
2018-02-21T10:22:36.726Z,14.79
2018-02-21T10:25:05.144Z,12.13
2018-02-21T10:27:33.555Z,13.08
2018-02-21T10:30:01.992Z,13.91
2018-02-21T10:32:30.451Z,13.80
2018-02-21T10:34:59.010Z,14.15
2018-02-21T10:37:27.419Z,14.46
2018-02-21T10:39:55.852Z,13.46
2018-02-21T10:42:24.259Z,12.67
2018-02-21T10:44:52.663Z,13.37
2018-02-21T10:47:21.116Z,13.14
2018-02-21T10:49:49.532Z,14.37
2018-02-21T10:52:17.964Z,12.84
2018-02-21T10:54:46.380Z,11.87
2018-02-21T10:57:14.853Z,10.75
2018-02-21T10:59:43.327Z,10.35
2018-02-21T11:02:11.731Z,9.33
2018-02-21T11:04:40.173Z,9.49
2018-02-21T11:07:08.647Z,9.04
2018-02-21T11:09:37.053Z,9.54
2018-02-21T11:12:05.534Z,10.15
2018-02-21T11:14:33.939Z,8.34
2018-02-21T11:17:02.350Z,9.60
2018-02-21T11:19:30.754Z,8.83
2018-02-21T11:21:59.205Z,8.33
2018-02-21T11:24:27.722Z,8.72
2018-02-21T11:26:56.249Z,7.88
2018-02-21T11:29:24.728Z,7.87
2018-02-21T11:31:53.129Z,7.75
2018-02-21T11:34:21.536Z,7.86
2018-02-21T11:36:50.046Z,8.60
2018-02-21T11:39:18.474Z,8.46
2018-02-21T11:41:46.954Z,8.77
2018-02-21T11:44:15.363Z,8.41
2018-02-21T11:46:43.777Z,8.73
2018-02-21T11:49:12.195Z,8.38
2018-02-21T11:51:40.622Z,8.96
2018-02-21T11:54:09.072Z,9.03
2018-02-21T11:56:37.466Z,8.74
2018-02-21T11:59:05.884Z,9.53
2018-02-21T12:01:34.438Z,10.21
2018-02-21T12:04:02.853Z,12.18
2018-02-21T12:06:31.325Z,12.22
2018-02-21T12:08:59.743Z,12.99
2018-02-21T12:11:28.198Z,13.21
2018-02-21T12:13:56.634Z,15.02
2018-02-21T12:16:25.052Z,12.84
2018-02-21T12:18:53.535Z,13.66
2018-02-21T12:21:22.011Z,14.00
2018-02-21T12:23:50.418Z,14.54
2018-02-21T12:26:18.826Z,13.97
2018-02-21T12:28:47.234Z,15.35
2018-02-21T12:31:15.699Z,13.85
2018-02-21T12:33:44.108Z,14.95
2018-02-21T12:36:12.527Z,13.32
2018-02-21T12:38:41.172Z,15.04
2018-02-21T12:41:16.121Z,14.15
2018-02-21T12:43:44.517Z,14.52
2018-02-21T12:46:12.934Z,14.54
2018-02-21T12:48:41.419Z,14.74
2018-02-21T12:51:09.867Z,14.95
2018-02-21T12:53:38.292Z,15.30
2018-02-21T12:56:06.738Z,15.06
2018-02-21T12:58:35.156Z,15.10
2018-02-21T13:01:03.720Z,15.04
2018-02-21T13:03:32.183Z,15.36
2018-02-21T13:06:00.595Z,15.24
2018-02-21T13:08:29.297Z,14.03
2018-02-21T13:10:57.839Z,14.84
2018-02-21T13:13:26.442Z,15.77
2018-02-21T13:15:55.149Z,15.43
2018-02-21T13:18:23.732Z,15.12
2018-02-21T13:20:52.077Z,14.75
2018-02-21T13:23:20.582Z,13.28
2018-02-21T13:25:49.189Z,11.85
2018-02-21T13:28:17.577Z,11.67
2018-02-21T13:30:46.000Z,10.61
2018-02-21T13:33:14.419Z,10.55
2018-02-21T13:35:42.827Z,10.27
2018-02-21T13:38:14.450Z,10.27
2018-02-21T13:40:42.870Z,9.85
2018-02-21T13:43:11.305Z,9.64
2018-02-21T13:45:39.695Z,9.53
2018-02-21T13:48:08.172Z,9.29
2018-02-21T13:50:36.650Z,9.82
2018-02-21T13:53:05.067Z,9.49
2018-02-21T13:55:33.490Z,8.57
2018-02-21T13:58:01.906Z,9.49
2018-02-21T14:00:30.453Z,10.07
2018-02-21T14:02:59.237Z,9.70
2018-02-21T14:05:27.643Z,8.60
2018-02-21T14:07:56.067Z,8.69
2018-02-21T14:10:24.509Z,8.36
2018-02-21T14:12:52.923Z,8.96
2018-02-21T14:15:21.375Z,8.47
2018-02-21T14:17:49.782Z,8.19
2018-02-21T14:20:18.185Z,8.20
2018-02-21T14:22:46.623Z,7.73
2018-02-21T14:25:15.022Z,8.48
2018-02-21T14:27:43.508Z,8.05
2018-02-21T14:30:11.942Z,7.96
2018-02-21T14:32:40.437Z,8.03
2018-02-21T14:35:08.850Z,8.53
2018-02-21T14:37:37.360Z,8.67
2018-02-21T14:40:05.928Z,7.80
2018-02-21T14:42:34.359Z,8.00
2018-02-21T14:45:02.979Z,7.80
2018-02-21T14:47:31.412Z,7.95
2018-02-21T14:49:59.816Z,7.37
2018-02-21T14:52:28.321Z,7.79
2018-02-21T14:54:56.745Z,7.27
2018-02-21T14:57:25.172Z,7.08
2018-02-21T14:59:53.600Z,6.59
2018-02-21T15:02:22.005Z,8.33
2018-02-21T15:04:50.502Z,7.37
2018-02-21T15:07:18.935Z,7.76
2018-02-21T15:09:47.364Z,8.02
2018-02-21T15:12:15.786Z,8.28
2018-02-21T15:14:44.220Z,8.18
2018-02-21T15:17:12.964Z,8.09
2018-02-21T15:19:41.372Z,8.28
2018-02-21T15:25:10.060Z,7.94
2018-02-21T15:27:38.467Z,7.28
2018-02-21T15:30:06.966Z,7.95
2018-02-21T15:32:35.421Z,6.76
2018-02-21T15:35:03.889Z,7.46
2018-02-21T15:37:32.342Z,7.79
2018-02-21T15:40:00.848Z,7.40
2018-02-21T15:42:29.250Z,7.45
2018-02-21T15:44:57.719Z,6.70
2018-02-21T15:47:26.231Z,7.92
2018-02-21T15:49:54.735Z,7.49
2018-02-21T15:52:23.159Z,7.76
2018-02-21T15:55:06.870Z,7.21
2018-02-21T15:57:35.254Z,6.88
2018-02-21T16:00:03.665Z,6.90
2018-02-21T16:02:32.081Z,6.74
2018-02-21T16:05:00.540Z,7.25
2018-02-21T16:07:29.094Z,7.69
2018-02-21T16:09:57.505Z,7.79
2018-02-21T16:12:25.950Z,7.47
2018-02-21T16:14:54.361Z,7.32
2018-02-21T16:17:22.790Z,6.71
2018-02-21T16:19:51.266Z,7.10
2018-02-21T16:22:19.725Z,6.70
2018-02-21T16:24:48.168Z,6.18
2018-02-21T16:27:16.593Z,6.21
2018-02-21T16:29:45.007Z,6.66
2018-02-21T16:32:13.508Z,5.97
2018-02-21T16:34:41.910Z,6.03
2018-02-21T16:37:10.358Z,6.22
2018-02-21T16:39:38.820Z,6.00
2018-02-21T16:42:07.255Z,6.54
2018-02-21T16:44:36.015Z,6.34
2018-02-21T16:47:04.435Z,5.94
2018-02-21T16:49:32.849Z,6.30
2018-02-21T16:52:01.271Z,5.95
2018-02-21T16:54:29.680Z,6.37
2018-02-21T16:56:58.159Z,5.71
2018-02-21T16:59:26.586Z,5.07
2018-02-21T17:01:55.496Z,5.94
2018-02-21T17:04:23.911Z,5.32
2018-02-21T17:06:52.318Z,6.16
2018-02-21T17:09:20.740Z,5.49
2018-02-21T17:11:50.006Z,5.67
2018-02-21T17:14:18.577Z,6.16
2018-02-21T17:16:46.978Z,5.54
2018-02-21T17:19:15.396Z,5.89
2018-02-21T17:21:43.849Z,6.68
2018-02-21T17:24:12.242Z,6.54
2018-02-21T17:26:40.671Z,4.74
2018-02-21T17:29:10.991Z,5.17
2018-02-21T17:31:39.479Z,5.83
2018-02-21T17:34:07.889Z,5.84
2018-02-21T17:36:36.300Z,5.53
2018-02-21T17:39:04.845Z,5.33
2018-02-21T17:41:33.316Z,5.29
2018-02-21T17:44:01.768Z,5.83
2018-02-21T17:46:30.147Z,5.38
2018-02-21T17:48:58.618Z,4.43
2018-02-21T17:51:27.051Z,4.28
2018-02-21T17:53:55.515Z,5.13
2018-02-21T17:56:23.978Z,4.91
2018-02-21T17:58:52.383Z,4.80
2018-02-21T18:01:20.788Z,4.92
2018-02-21T18:03:49.198Z,4.46
2018-02-21T18:06:17.688Z,4.88
2018-02-21T18:08:46.118Z,4.54
2018-02-21T18:11:14.538Z,4.75
2018-02-21T18:13:42.970Z,4.00
2018-02-21T18:16:12.289Z,4.47
2018-02-21T18:18:40.801Z,4.48
2018-02-21T18:21:09.217Z,4.76
2018-02-21T18:23:37.835Z,4.67
2018-02-21T18:26:08.040Z,4.79
2018-02-21T18:28:36.565Z,4.99
2018-02-21T18:31:05.321Z,4.69
2018-02-21T18:33:34.224Z,4.42
2018-02-21T18:36:02.688Z,4.59
2018-02-21T18:38:32.328Z,5.35
2018-02-21T18:41:04.858Z,5.36
2018-02-21T18:43:33.303Z,4.99
2018-02-21T18:46:01.726Z,5.48
2018-02-21T18:48:30.123Z,5.26
2018-02-21T18:50:58.537Z,5.02
2018-02-21T18:53:26.952Z,5.00
2018-02-21T18:55:55.418Z,5.43
2018-02-21T18:58:23.830Z,4.30
2018-02-21T19:00:52.247Z,4.05
2018-02-21T19:03:20.682Z,5.05
2018-02-21T19:05:49.137Z,5.41
2018-02-21T19:10:51.730Z,4.75
2018-02-21T19:13:20.170Z,4.45
2018-02-21T19:15:48.647Z,3.95
2018-02-21T19:18:17.061Z,4.59
2018-02-21T19:20:45.480Z,3.19
2018-02-21T19:23:14.801Z,4.64
2018-02-21T19:25:43.297Z,4.32
2018-02-21T19:28:11.874Z,3.83
2018-02-21T19:30:40.454Z,3.42
2018-02-21T19:33:08.873Z,3.42
2018-02-21T19:35:37.283Z,3.14
2018-02-21T19:38:05.714Z,4.29
2018-02-21T19:40:34.213Z,4.17
2018-02-21T19:43:02.603Z,3.66
2018-02-21T19:45:31.021Z,3.68
2018-02-21T19:47:59.440Z,3.76
2018-02-21T19:50:27.986Z,3.98
2018-02-21T19:52:56.548Z,3.02
2018-02-21T19:55:25.945Z,3.26
2018-02-21T19:57:55.267Z,2.93
2018-02-21T20:00:23.656Z,3.40
2018-02-21T20:02:52.069Z,2.91
2018-02-21T20:05:20.579Z,3.15
2018-02-21T20:07:49.203Z,3.48
2018-02-21T20:10:17.644Z,1.99
2018-02-21T20:12:46.960Z,3.00
2018-02-21T20:15:15.370Z,3.61
2018-02-21T20:17:44.166Z,3.24
2018-02-21T20:20:12.640Z,3.45
2018-02-21T20:22:41.191Z,3.22
2018-02-21T20:25:09.618Z,3.60
2018-02-21T20:27:38.042Z,3.51
2018-02-21T20:30:06.623Z,3.29
2018-02-21T20:32:35.071Z,3.24
2018-02-21T20:35:03.489Z,3.08
2018-02-21T20:37:31.974Z,2.79
2018-02-21T20:40:00.416Z,2.97
2018-02-21T20:42:28.894Z,3.29
2018-02-21T20:44:57.520Z,3.23
2018-02-21T20:47:26.022Z,3.09
2018-02-21T20:49:54.456Z,3.58
2018-02-21T20:52:23.214Z,4.02
2018-02-21T20:54:52.084Z,2.18
2018-02-21T20:57:20.946Z,3.47
2018-02-21T20:59:49.482Z,2.27
2018-02-21T21:02:17.897Z,3.26
2018-02-21T21:04:46.313Z,3.26
2018-02-21T21:07:14.798Z,3.40
2018-02-21T21:09:43.430Z,3.45
2018-02-21T21:12:12.188Z,2.98
2018-02-21T21:14:40.739Z,2.86
2018-02-21T21:17:09.147Z,3.42
2018-02-21T21:19:37.646Z,3.11
2018-02-21T21:22:06.049Z,3.67
2018-02-21T21:24:34.454Z,3.44
2018-02-21T21:27:02.908Z,3.02
2018-02-21T21:29:31.332Z,4.13
2018-02-21T21:31:59.989Z,3.80
2018-02-21T21:34:28.440Z,2.90
2018-02-21T21:36:56.871Z,3.96
2018-02-21T21:39:25.316Z,2.78
2018-02-21T21:41:54.721Z,3.22
2018-02-21T21:44:23.373Z,3.48
2018-02-21T21:46:52.503Z,3.69
2018-02-21T21:49:21.035Z,3.28
2018-02-21T21:51:51.865Z,2.76
2018-02-21T21:54:20.326Z,2.92
2018-02-21T21:56:48.863Z,3.57
2018-02-21T21:59:17.266Z,2.79
2018-02-21T22:01:45.651Z,3.22
2018-02-21T22:04:14.075Z,2.57
2018-02-21T22:06:42.484Z,3.23
2018-02-21T22:09:10.968Z,3.83
2018-02-21T22:11:39.353Z,3.24
2018-02-21T22:14:07.831Z,3.59
2018-02-21T22:16:36.257Z,4.11
2018-02-21T22:19:04.662Z,3.27
2018-02-21T22:21:33.137Z,3.08
2018-02-21T22:24:01.542Z,3.31
2018-02-21T22:26:29.947Z,3.46
2018-02-21T22:28:58.360Z,3.38
2018-02-21T22:31:26.756Z,3.13
2018-02-21T22:33:55.225Z,3.17
2018-02-21T22:36:23.665Z,2.91
2018-02-21T22:38:52.049Z,3.56
2018-02-21T22:41:20.458Z,3.42
2018-02-21T22:43:48.858Z,3.15
2018-02-21T22:46:18.509Z,3.12
2018-02-21T22:48:46.914Z,3.25
2018-02-21T22:51:15.335Z,3.49
2018-02-21T22:53:43.752Z,3.53
2018-02-21T22:56:12.162Z,3.69
2018-02-21T22:58:40.655Z,4.06
2018-02-21T23:01:09.125Z,3.89
2018-02-21T23:03:37.643Z,3.61
2018-02-21T23:06:06.082Z,2.71
2018-02-21T23:08:34.493Z,3.30
2018-02-21T23:11:02.970Z,3.92
2018-02-21T23:13:31.373Z,3.16
2018-02-21T23:15:59.781Z,3.10
2018-02-21T23:18:28.178Z,2.92
2018-02-21T23:20:56.574Z,2.62
2018-02-21T23:23:25.200Z,2.45
2018-02-21T23:25:53.611Z,2.81
2018-02-21T23:28:21.995Z,3.04
2018-02-21T23:30:50.416Z,2.87
2018-02-21T23:33:18.908Z,3.04
2018-02-21T23:35:47.395Z,2.32
2018-02-21T23:38:15.797Z,2.06
2018-02-21T23:40:44.199Z,3.00
2018-02-21T23:43:12.700Z,2.05
2018-02-21T23:45:41.172Z,2.37
2018-02-21T23:48:09.650Z,2.96
2018-02-21T23:50:38.056Z,3.62
2018-02-21T23:53:06.481Z,3.28
2018-02-21T23:55:34.876Z,3.41
2018-02-21T23:58:03.268Z,2.82
